sim
Sign-in with your pilot id or email,
or register
Callsign
Passwort

Schedule Details

Flight Number: RYR1101
Departure: Berlin Schonefeld Airport (EDDB) at 05:20
Arrival: Fuerteventura Airport (GCFV) at 10:30
Route: Ryanair Passenger Schedule. Enter filed route here before submitting Pirep.

Weather Information
Getting current METAR information for EDDB 160350Z 15002KT CAVOK M01/M02 Q1028 NOSIG
Getting current METAR information for GCFV 160330Z AUTO 28005KT 9999 NCD 14/11 Q1017

Schedule Frequency

Route Map